createdAt,value
2019-03-22T00:01:06.268Z,0
2019-03-22T00:06:06.772Z,0
2019-03-22T00:11:06.619Z,0
2019-03-22T00:16:07.076Z,0
2019-03-22T00:21:06.855Z,0
2019-03-22T00:25:06.352Z,0
2019-03-22T00:30:08.082Z,0
2019-03-22T00:35:06.845Z,0
2019-03-22T00:40:06.728Z,0
2019-03-22T00:45:07.586Z,0
2019-03-22T00:50:06.568Z,0
2019-03-22T00:55:07.132Z,0
2019-03-22T00:59:07.589Z,0
2019-03-22T01:04:07.075Z,0
2019-03-22T01:09:07.000Z,0
2019-03-22T01:14:06.654Z,0
2019-03-22T01:19:06.891Z,0
2019-03-22T01:24:06.547Z,0
2019-03-22T01:28:08.031Z,0
2019-03-22T01:33:07.456Z,0
2019-03-22T01:38:08.109Z,0
2019-03-22T01:43:07.274Z,0
2019-03-22T01:48:07.745Z,0
2019-03-22T01:53:07.447Z,0
2019-03-22T01:58:08.038Z,0
2019-03-22T02:03:11.241Z,0
2019-03-22T02:08:08.938Z,0
2019-03-22T02:12:07.361Z,0
2019-03-22T02:17:06.780Z,0
2019-03-22T02:22:06.466Z,0
2019-03-22T02:27:07.074Z,0
2019-03-22T02:32:06.422Z,0
2019-03-22T02:37:07.085Z,0
2019-03-22T02:41:08.192Z,0
2019-03-22T02:46:07.452Z,0
2019-03-22T02:51:08.145Z,0
2019-03-22T02:56:08.317Z,0
2019-03-22T03:01:06.373Z,0
2019-03-22T03:06:07.079Z,0
2019-03-22T03:11:06.247Z,0
2019-03-22T03:16:06.379Z,0
2019-03-22T03:21:07.059Z,0
2019-03-22T03:25:07.573Z,0
2019-03-22T03:30:09.477Z,0
2019-03-22T03:31:06.459Z,0
2019-03-22T03:35:08.112Z,0
2019-03-22T03:40:07.373Z,0
2019-03-22T03:45:08.212Z,0
2019-03-22T03:50:07.644Z,0
2019-03-22T03:55:06.348Z,0
2019-03-22T04:00:09.866Z,0
2019-03-22T04:04:07.012Z,0
2019-03-22T04:09:08.032Z,0
2019-03-22T04:14:06.533Z,0
2019-03-22T04:19:08.176Z,0
2019-03-22T04:24:06.804Z,0
2019-03-22T04:29:09.594Z,0
2019-03-22T04:34:06.772Z,0
2019-03-22T04:38:07.568Z,1.67
2019-03-22T04:43:07.791Z,5
2019-03-22T04:48:07.311Z,13.33
2019-03-22T04:53:08.059Z,35
2019-03-22T04:58:07.748Z,69.17
2019-03-22T05:03:06.375Z,117.5
2019-03-22T05:08:08.019Z,185.83
2019-03-22T05:13:07.108Z,296.67
2019-03-22T05:17:07.582Z,437.5
2019-03-22T05:22:07.421Z,611.67
2019-03-22T05:27:07.417Z,835.83
2019-03-22T05:32:07.672Z,1093.33
2019-03-22T05:37:07.314Z,1440.83
2019-03-22T05:42:07.750Z,1867.5
2019-03-22T05:47:07.213Z,2261.67
2019-03-22T05:51:07.667Z,2744.17
2019-03-22T05:56:07.223Z,2968.33
2019-03-22T06:01:07.960Z,3254.17
2019-03-22T06:06:07.535Z,3704.17
2019-03-22T06:11:07.498Z,4015.83
2019-03-22T06:16:07.856Z,4385
2019-03-22T06:21:07.446Z,4740.83
2019-03-22T06:25:08.005Z,5620
2019-03-22T06:30:09.209Z,6302.5
2019-03-22T06:35:07.805Z,6873.33
2019-03-22T06:40:07.927Z,8258.33
2019-03-22T06:45:09.187Z,7485.83
2019-03-22T06:50:07.815Z,7664.17
2019-03-22T06:55:07.485Z,7796.67
2019-03-22T06:59:07.029Z,8673.33
2019-03-22T07:04:07.137Z,10551.67
2019-03-22T07:09:08.291Z,10268.33
2019-03-22T07:14:08.051Z,9438.33
2019-03-22T07:19:07.925Z,10100
2019-03-22T07:24:07.688Z,11389.17
2019-03-22T07:29:07.310Z,10995
2019-03-22T07:33:06.465Z,11328.33
2019-03-22T07:38:07.625Z,11140
2019-03-22T07:43:06.615Z,14241.67
2019-03-22T07:48:06.821Z,16967.5
2019-03-22T07:53:06.572Z,18558.33
2019-03-22T07:58:06.193Z,19619.17
2019-03-22T08:03:07.387Z,21609.17
2019-03-22T08:08:08.176Z,25084.17
2019-03-22T08:12:06.348Z,26924.17
2019-03-22T08:17:07.224Z,21017.5
2019-03-22T08:22:06.871Z,22100.83
2019-03-22T08:27:06.552Z,27006.67
2019-03-22T08:32:06.926Z,19388.33
2019-03-22T08:37:06.614Z,13703.33
2019-03-22T08:42:06.899Z,15161.67
2019-03-22T08:46:07.067Z,12246.67
2019-03-22T08:51:07.096Z,13966.67
2019-03-22T08:52:07.393Z,13966.67
2019-03-22T08:56:06.927Z,15974.17
2019-03-22T09:01:07.670Z,19155.83
2019-03-22T09:06:09.009Z,19104.17
2019-03-22T09:11:08.070Z,18917.5
2019-03-22T09:16:08.201Z,17383.33
2019-03-22T09:21:07.943Z,19019.17
2019-03-22T09:26:07.602Z,17770
2019-03-22T09:30:08.820Z,18330.83
2019-03-22T09:35:06.434Z,25278.33
2019-03-22T09:40:08.383Z,25998.33
2019-03-22T09:45:07.250Z,24023.33
2019-03-22T09:50:06.838Z,26277.5
2019-03-22T09:55:12.983Z,27959.17
2019-03-22T10:00:10.054Z,25863.33
2019-03-22T10:05:07.414Z,27310.83
2019-03-22T10:09:07.274Z,28416.67
2019-03-22T10:14:07.096Z,38011.66
2019-03-22T10:19:06.493Z,28301.67
2019-03-22T10:24:07.185Z,28204.17
2019-03-22T10:29:07.162Z,31637.5
2019-03-22T10:34:06.833Z,27205
2019-03-22T10:39:07.138Z,27875
2019-03-22T10:43:08.042Z,27573.33
2019-03-22T10:48:07.385Z,26660.83
2019-03-22T10:53:08.080Z,29030.83
2019-03-22T10:58:22.325Z,25769.17
2019-03-22T11:03:06.919Z,34857.5
2019-03-22T11:08:06.547Z,40412.5
2019-03-22T11:13:06.496Z,48777.5
2019-03-22T11:17:07.934Z,26564.17
2019-03-22T11:18:06.186Z,26564.17
2019-03-22T11:22:07.683Z,38197.5
2019-03-22T11:27:07.204Z,41835
2019-03-22T11:32:13.815Z,29365.83
2019-03-22T11:37:08.849Z,41860.83
2019-03-22T11:42:07.780Z,38488.33
2019-03-22T11:47:07.835Z,42410
2019-03-22T11:51:07.313Z,39385.83
2019-03-22T11:56:10.101Z,41005
2019-03-22T12:01:07.263Z,40961.66
2019-03-22T12:06:07.856Z,41730.83
2019-03-22T12:11:08.015Z,41160.83
2019-03-22T12:16:08.032Z,41374.16
2019-03-22T12:21:07.753Z,38252.5
2019-03-22T12:26:07.592Z,42008.33
2019-03-22T12:30:09.517Z,42145.83
2019-03-22T12:35:07.310Z,41718.33
2019-03-22T12:40:07.526Z,43078.33
2019-03-22T12:45:08.351Z,44074.16
2019-03-22T12:50:07.574Z,47219.16
2019-03-22T12:55:07.245Z,49025.83
2019-03-22T13:00:09.573Z,48768.33
2019-03-22T13:04:06.808Z,45210.83
2019-03-22T13:09:06.743Z,41228.33
2019-03-22T13:14:06.471Z,38868.33
2019-03-22T13:19:06.854Z,38500
2019-03-22T13:24:06.574Z,33143.33
2019-03-22T13:29:06.239Z,37559.16
2019-03-22T13:34:06.562Z,37411.66
2019-03-22T13:39:07.640Z,35074.16
2019-03-22T13:43:07.121Z,33871.66
2019-03-22T13:48:06.399Z,33447.5
2019-03-22T13:53:07.385Z,31289.17
2019-03-22T13:58:07.671Z,29778.33
2019-03-22T14:03:06.212Z,30763.33
2019-03-22T14:08:07.500Z,28474.17
2019-03-22T14:13:06.786Z,26985.83
2019-03-22T14:17:07.851Z,26651.67
2019-03-22T14:22:06.628Z,25284.17
2019-03-22T14:27:07.713Z,26147.5
2019-03-22T14:32:07.897Z,26343.33
2019-03-22T14:37:08.349Z,25463.33
2019-03-22T14:42:06.615Z,24707.5
2019-03-22T14:47:08.193Z,22177.5
2019-03-22T14:52:07.075Z,23782.5
2019-03-22T14:56:08.265Z,21798.33
2019-03-22T15:01:08.352Z,21445
2019-03-22T15:06:08.153Z,19534.17
2019-03-22T15:11:07.417Z,18955
2019-03-22T15:16:07.976Z,16920.83
2019-03-22T15:21:08.209Z,16907.5
2019-03-22T15:25:07.894Z,15890
2019-03-22T15:30:11.582Z,15293.33
2019-03-22T15:35:06.707Z,14076.67
2019-03-22T15:40:07.460Z,14265
2019-03-22T15:45:08.408Z,13019.17
2019-03-22T15:50:08.866Z,12274.17
2019-03-22T15:55:07.784Z,10989.17
2019-03-22T16:00:08.061Z,10078.33
2019-03-22T16:04:07.459Z,9530.83
2019-03-22T16:09:09.384Z,8388.33
2019-03-22T16:14:08.282Z,7796.67
2019-03-22T16:19:07.749Z,7114.17
2019-03-22T16:24:07.424Z,6201.67
2019-03-22T16:29:08.310Z,5554.17
2019-03-22T16:34:07.918Z,4808.33
2019-03-22T16:38:07.674Z,4245
2019-03-22T16:43:07.981Z,3425.83
2019-03-22T16:48:06.415Z,2967.5
2019-03-22T16:53:08.176Z,2510.83
2019-03-22T16:58:08.024Z,2078.33
2019-03-22T17:03:07.784Z,1671.67
2019-03-22T17:08:07.542Z,1271.67
2019-03-22T17:12:06.444Z,940
2019-03-22T17:17:08.016Z,662.5
2019-03-22T17:22:07.752Z,452.5
2019-03-22T17:27:07.579Z,299.17
2019-03-22T17:32:07.757Z,178.33
2019-03-22T17:37:06.385Z,94.17
2019-03-22T17:42:07.619Z,44.17
2019-03-22T17:46:06.484Z,18.33
2019-03-22T17:51:07.184Z,6.67
2019-03-22T17:56:07.920Z,2.5
2019-03-22T18:01:07.711Z,0.83
2019-03-22T18:06:07.320Z,0
2019-03-22T18:11:06.390Z,0
2019-03-22T18:16:07.755Z,0
2019-03-22T18:20:07.333Z,0
2019-03-22T18:25:07.871Z,0
2019-03-22T18:30:08.566Z,0
2019-03-22T18:35:08.136Z,0
2019-03-22T18:40:08.166Z,0
2019-03-22T18:45:09.732Z,0
2019-03-22T18:50:07.545Z,0
2019-03-22T18:54:07.081Z,0
2019-03-22T18:59:07.810Z,0
2019-03-22T19:04:07.604Z,0
2019-03-22T19:09:07.596Z,0
2019-03-22T19:14:07.254Z,0
2019-03-22T19:19:07.215Z,0
2019-03-22T19:24:07.869Z,0
2019-03-22T19:28:07.401Z,0
2019-03-22T19:33:07.113Z,0
2019-03-22T19:38:08.109Z,0
2019-03-22T19:43:07.304Z,0
2019-03-22T19:48:07.865Z,0
2019-03-22T19:53:07.898Z,0
2019-03-22T19:58:07.627Z,0
2019-03-22T20:02:07.245Z,0
2019-03-22T20:07:07.847Z,0
2019-03-22T20:12:07.490Z,0
2019-03-22T20:17:06.668Z,0
2019-03-22T20:22:07.461Z,0
2019-03-22T20:27:08.087Z,0
2019-03-22T20:32:07.949Z,0
2019-03-22T20:36:08.774Z,0
2019-03-22T20:41:07.899Z,0
2019-03-22T20:46:07.318Z,0
2019-03-22T20:51:08.095Z,0
2019-03-22T20:56:07.822Z,0
2019-03-22T21:01:07.270Z,0
2019-03-22T21:06:06.615Z,0
2019-03-22T21:10:07.746Z,0
2019-03-22T21:15:08.714Z,0
2019-03-22T21:20:08.004Z,0
2019-03-22T21:25:07.672Z,0
2019-03-22T21:30:08.947Z,0
2019-03-22T21:35:07.899Z,0
2019-03-22T21:40:08.200Z,0
2019-03-22T21:45:09.018Z,0
2019-03-22T21:49:07.300Z,0
2019-03-22T21:54:08.052Z,0
2019-03-22T21:59:07.854Z,0
2019-03-22T22:04:07.304Z,0
2019-03-22T22:09:08.445Z,0
2019-03-22T22:14:08.086Z,0
2019-03-22T22:19:08.075Z,0
2019-03-22T22:23:07.862Z,0
2019-03-22T22:28:07.508Z,0
2019-03-22T22:33:08.172Z,0
2019-03-22T22:38:07.930Z,0
2019-03-22T22:43:08.168Z,0
2019-03-22T22:48:08.010Z,0
2019-03-22T22:53:07.775Z,0
2019-03-22T22:58:07.533Z,0
2019-03-22T23:02:07.628Z,0
2019-03-22T23:07:07.197Z,0
2019-03-22T23:12:06.698Z,0
2019-03-22T23:17:07.125Z,0
2019-03-22T23:22:06.829Z,0
2019-03-22T23:27:06.457Z,0
2019-03-22T23:32:06.345Z,0
2019-03-22T23:36:07.876Z,0
2019-03-22T23:41:08.065Z,0
2019-03-22T23:46:07.490Z,0
2019-03-22T23:51:08.169Z,0
2019-03-22T23:56:07.832Z,0
